createdAt,value
2017-05-19T00:01:28.617Z,95.30
2017-05-19T00:03:56.055Z,95.20
2017-05-19T00:06:22.757Z,95.50
2017-05-19T00:08:49.498Z,95.30
2017-05-19T00:11:16.208Z,95.20
2017-05-19T00:13:42.885Z,95.60
2017-05-19T00:16:09.939Z,95.70
2017-05-19T00:18:36.623Z,95.60
2017-05-19T00:21:03.312Z,95.50
2017-05-19T00:23:30.020Z,95.30
2017-05-19T00:25:56.694Z,95.60
2017-05-19T00:28:23.392Z,95.70
2017-05-19T00:30:50.087Z,96.00
2017-05-19T00:33:16.790Z,95.70
2017-05-19T00:35:44.238Z,95.30
2017-05-19T00:38:10.922Z,95.00
2017-05-19T00:40:37.599Z,94.90
2017-05-19T00:43:04.306Z,95.50
2017-05-19T00:45:31.039Z,95.00
2017-05-19T00:47:57.743Z,95.60
2017-05-19T00:50:25.162Z,96.00
2017-05-19T00:52:51.843Z,96.30
2017-05-19T00:55:19.284Z,96.30
2017-05-19T00:57:46.059Z,96.30
2017-05-19T01:00:12.784Z,96.30
2017-05-19T01:02:40.263Z,95.90
2017-05-19T01:05:06.911Z,96.00
2017-05-19T01:07:33.601Z,95.80
2017-05-19T01:10:00.292Z,96.00
2017-05-19T01:12:26.990Z,95.60
2017-05-19T01:14:54.447Z,95.50
2017-05-19T01:17:21.139Z,95.10
2017-05-19T01:19:47.954Z,95.60
2017-05-19T01:22:15.380Z,96.10
2017-05-19T01:24:42.847Z,96.10
2017-05-19T01:27:09.523Z,96.30
2017-05-19T01:29:36.202Z,96.20
2017-05-19T01:32:02.908Z,95.90
2017-05-19T01:34:29.599Z,95.50
2017-05-19T01:36:56.424Z,95.70
2017-05-19T01:39:23.113Z,96.00
2017-05-19T01:41:50.549Z,96.20
2017-05-19T01:44:17.241Z,96.10
2017-05-19T01:46:43.914Z,96.10
2017-05-19T01:49:10.614Z,96.00
2017-05-19T01:51:37.295Z,95.70
2017-05-19T01:54:03.971Z,95.60
2017-05-19T01:56:31.400Z,95.70
2017-05-19T01:58:58.907Z,95.40
2017-05-19T02:01:25.615Z,95.50
2017-05-19T02:03:53.039Z,95.60
2017-05-19T02:06:19.710Z,95.90
2017-05-19T02:08:47.144Z,96.50
2017-05-19T02:11:13.831Z,96.40
2017-05-19T02:13:40.534Z,96.10
2017-05-19T02:16:07.228Z,96.30
2017-05-19T02:18:33.935Z,96.60
2017-05-19T02:21:01.380Z,96.30
2017-05-19T02:23:28.073Z,96.40
2017-05-19T02:25:54.769Z,96.20
2017-05-19T02:28:22.198Z,96.20
2017-05-19T02:30:48.886Z,96.30
2017-05-19T02:33:15.579Z,96.40
2017-05-19T02:35:42.275Z,96.20
2017-05-19T02:38:08.983Z,96.20
2017-05-19T02:40:36.410Z,96.50
2017-05-19T02:43:03.107Z,96.50
2017-05-19T02:45:29.813Z,97.00
2017-05-19T02:47:56.490Z,97.30
2017-05-19T02:50:23.195Z,97.30
2017-05-19T02:52:49.876Z,97.50
2017-05-19T02:55:16.570Z,97.50
2017-05-19T02:57:43.264Z,97.40
2017-05-19T03:00:09.950Z,97.80
2017-05-19T03:02:36.634Z,97.70
2017-05-19T03:05:03.369Z,97.40
2017-05-19T03:07:30.052Z,96.70
2017-05-19T03:09:56.735Z,96.80
2017-05-19T03:12:24.188Z,97.10
2017-05-19T03:14:51.615Z,96.80
2017-05-19T03:17:18.313Z,97.10
2017-05-19T03:19:45.021Z,97.40
2017-05-19T03:22:12.459Z,97.10
2017-05-19T03:24:39.168Z,96.90
2017-05-19T03:27:06.072Z,97.20
2017-05-19T03:29:33.514Z,97.20
2017-05-19T03:35:07.730Z,96.90
2017-05-19T03:37:34.423Z,97.00
2017-05-19T03:40:01.108Z,97.10
2017-05-19T03:42:27.800Z,97.50
2017-05-19T03:44:54.492Z,97.70
2017-05-19T03:47:21.203Z,97.30
2017-05-19T03:49:47.875Z,97.50
2017-05-19T03:52:14.559Z,97.10
2017-05-19T03:54:41.247Z,97.40
2017-05-19T03:57:07.927Z,97.50
2017-05-19T03:59:35.376Z,97.10
2017-05-19T04:02:02.050Z,97.10
2017-05-19T04:04:28.743Z,97.10
2017-05-19T04:06:55.434Z,97.90
2017-05-19T04:09:22.119Z,98.10
2017-05-19T04:11:48.819Z,98.60
2017-05-19T04:14:15.503Z,98.80
2017-05-19T04:16:42.191Z,98.80
2017-05-19T04:19:08.896Z,98.40
2017-05-19T04:21:35.607Z,98.20
2017-05-19T04:24:02.287Z,97.80
2017-05-19T04:26:29.712Z,98.40
2017-05-19T04:28:56.410Z,98.60
2017-05-19T04:31:23.112Z,98.60
2017-05-19T04:33:49.816Z,98.80
2017-05-19T04:36:16.499Z,99.10
2017-05-19T04:38:43.921Z,99.40
2017-05-19T04:41:10.606Z,99.20
2017-05-19T04:43:38.052Z,99.50
2017-05-19T04:46:05.507Z,99.40
2017-05-19T04:48:32.196Z,99.40
2017-05-19T04:50:58.876Z,99.40
2017-05-19T04:53:25.570Z,99.50
2017-05-19T04:55:52.265Z,99.50
2017-05-19T04:58:18.967Z,99.70
2017-05-19T05:00:45.648Z,99.90
2017-05-19T05:03:12.323Z,99.90
2017-05-19T05:05:39.012Z,99.90
2017-05-19T05:08:05.690Z,99.70
2017-05-19T05:10:32.448Z,99.50
2017-05-19T05:12:59.131Z,99.30
2017-05-19T05:15:25.911Z,98.90
2017-05-19T05:17:53.387Z,98.40
2017-05-19T05:20:20.066Z,98.20
2017-05-19T05:22:46.782Z,98.20
2017-05-19T05:25:13.458Z,98.00
2017-05-19T05:27:40.143Z,97.60
2017-05-19T05:30:06.823Z,97.30
2017-05-19T05:32:33.503Z,97.30
2017-05-19T05:35:00.954Z,96.60
2017-05-19T05:37:28.370Z,95.40
2017-05-19T05:39:55.050Z,95.60
2017-05-19T05:42:22.472Z,94.20
2017-05-19T05:44:49.164Z,94.00
2017-05-19T05:47:15.880Z,94.20
2017-05-19T05:49:42.567Z,94.00
2017-05-19T05:52:09.243Z,94.20
2017-05-19T05:54:36.239Z,93.90
2017-05-19T05:57:02.917Z,94.30
2017-05-19T05:59:30.612Z,93.70
2017-05-19T06:01:57.409Z,92.80
2017-05-19T06:04:24.088Z,92.70
2017-05-19T06:06:50.767Z,92.10
2017-05-19T06:09:17.446Z,92.00
2017-05-19T06:11:44.150Z,91.80
2017-05-19T06:14:10.829Z,91.60
2017-05-19T06:16:37.506Z,90.80
2017-05-19T06:19:04.923Z,91.00
2017-05-19T06:21:31.603Z,90.70
2017-05-19T06:23:59.051Z,90.70
2017-05-19T06:26:26.495Z,89.20
2017-05-19T06:28:53.172Z,88.10
2017-05-19T06:31:19.879Z,88.10
2017-05-19T06:33:46.560Z,87.80
2017-05-19T06:36:13.272Z,89.00
2017-05-19T06:38:40.691Z,89.00
2017-05-19T06:41:07.393Z,89.70
2017-05-19T06:43:34.071Z,90.20
2017-05-19T06:46:00.762Z,90.10
2017-05-19T06:48:28.232Z,90.80
2017-05-19T06:50:54.914Z,90.80
2017-05-19T06:53:21.618Z,90.50
2017-05-19T06:55:48.299Z,90.00
2017-05-19T06:58:14.971Z,89.50
2017-05-19T07:00:42.435Z,87.40
2017-05-19T07:03:09.864Z,87.00
2017-05-19T07:05:36.548Z,87.20
2017-05-19T07:08:03.233Z,84.80
2017-05-19T07:10:29.913Z,85.10
2017-05-19T07:12:56.636Z,83.70
2017-05-19T07:15:23.314Z,81.70
2017-05-19T07:17:50.012Z,79.70
2017-05-19T07:20:16.703Z,78.50
2017-05-19T07:22:43.371Z,79.70
2017-05-19T07:25:10.351Z,81.50
2017-05-19T07:27:37.771Z,79.30
2017-05-19T07:30:04.754Z,80.10
2017-05-19T07:32:32.204Z,81.20
2017-05-19T07:34:58.884Z,79.10
2017-05-19T07:37:25.567Z,80.90
2017-05-19T07:39:52.287Z,79.80
2017-05-19T07:42:18.980Z,78.90
2017-05-19T07:44:46.451Z,79.20
2017-05-19T07:47:13.157Z,79.30
2017-05-19T07:49:39.842Z,78.50
2017-05-19T07:52:06.515Z,80.00
2017-05-19T07:54:33.214Z,80.50
2017-05-19T07:56:59.891Z,82.10
2017-05-19T07:59:26.580Z,80.80
2017-05-19T08:01:54.034Z,81.60
2017-05-19T08:04:21.455Z,81.30
2017-05-19T08:06:48.147Z,82.20
2017-05-19T08:09:14.860Z,83.40
2017-05-19T08:11:41.550Z,85.10
2017-05-19T08:14:08.223Z,85.40
2017-05-19T08:16:34.939Z,86.00
2017-05-19T08:19:01.624Z,88.10
2017-05-19T08:21:28.303Z,88.50
2017-05-19T08:23:55.004Z,88.90
2017-05-19T08:26:21.692Z,88.60
2017-05-19T08:28:48.373Z,90.40
2017-05-19T08:31:15.098Z,90.60
2017-05-19T08:33:41.780Z,90.70
2017-05-19T08:36:09.202Z,91.50
2017-05-19T08:38:35.922Z,91.40
2017-05-19T08:41:02.611Z,91.20
2017-05-19T08:43:30.271Z,91.30
2017-05-19T08:45:57.735Z,92.50
2017-05-19T08:48:25.155Z,92.60
2017-05-19T08:50:51.854Z,92.30
2017-05-19T08:53:18.563Z,92.50
2017-05-19T08:55:45.555Z,91.80
2017-05-19T08:58:12.235Z,91.90
2017-05-19T09:00:38.930Z,92.30
2017-05-19T09:03:05.614Z,92.30
2017-05-19T09:05:32.290Z,92.40
2017-05-19T09:07:59.728Z,92.50
2017-05-19T09:10:26.407Z,92.70
2017-05-19T09:12:53.078Z,92.70
2017-05-19T09:15:19.788Z,92.20
2017-05-19T09:17:46.479Z,92.60
2017-05-19T09:20:13.159Z,93.00
2017-05-19T09:22:39.891Z,93.00
2017-05-19T09:25:06.574Z,93.30
2017-05-19T09:27:33.256Z,93.20
2017-05-19T09:30:00.716Z,92.60
2017-05-19T09:32:28.148Z,93.00
2017-05-19T09:34:54.832Z,93.90
2017-05-19T09:37:21.543Z,93.20
2017-05-19T09:39:48.229Z,93.60
2017-05-19T09:42:14.923Z,93.40
2017-05-19T09:44:41.619Z,92.80
2017-05-19T09:47:08.300Z,93.00
2017-05-19T09:49:35.034Z,93.00
2017-05-19T09:52:01.806Z,93.20
2017-05-19T09:54:29.228Z,92.60
2017-05-19T09:56:55.901Z,92.40
2017-05-19T09:59:22.615Z,92.60
2017-05-19T10:01:56.207Z,92.50
2017-05-19T10:04:22.907Z,91.90
2017-05-19T10:06:49.603Z,93.30
2017-05-19T10:09:16.287Z,92.30
2017-05-19T10:11:42.983Z,92.40
2017-05-19T10:14:09.672Z,91.90
2017-05-19T10:16:36.360Z,92.30
2017-05-19T10:19:03.067Z,92.00
2017-05-19T10:21:29.748Z,92.70
2017-05-19T10:23:56.432Z,92.40
2017-05-19T10:26:23.128Z,92.60
2017-05-19T10:28:49.808Z,92.80
2017-05-19T10:31:16.520Z,93.30
2017-05-19T10:33:44.384Z,92.50
2017-05-19T10:36:11.803Z,91.70
2017-05-19T10:38:38.502Z,91.80
2017-05-19T10:41:05.176Z,91.40
2017-05-19T10:43:31.867Z,91.20
2017-05-19T10:45:59.292Z,90.90
2017-05-19T10:48:25.984Z,91.50
2017-05-19T10:50:52.658Z,91.50
2017-05-19T10:53:19.363Z,91.00
2017-05-19T10:55:46.039Z,89.90
2017-05-19T10:58:12.718Z,90.10
2017-05-19T11:00:40.172Z,90.50
2017-05-19T11:03:07.624Z,90.20
2017-05-19T11:05:34.306Z,88.40
2017-05-19T11:08:01.016Z,88.80
2017-05-19T11:10:28.431Z,90.20
2017-05-19T11:12:55.107Z,87.70
2017-05-19T11:15:21.806Z,89.20
2017-05-19T11:17:48.483Z,89.90
2017-05-19T11:20:15.163Z,88.20
2017-05-19T11:22:41.863Z,87.30
2017-05-19T11:25:08.555Z,85.70
2017-05-19T11:27:35.233Z,85.00
2017-05-19T11:30:01.950Z,86.70
2017-05-19T11:32:28.644Z,82.90
2017-05-19T11:34:56.062Z,78.80
2017-05-19T11:37:22.779Z,74.30
2017-05-19T11:39:49.479Z,75.70
2017-05-19T11:42:16.948Z,71.20
2017-05-19T11:44:43.668Z,69.70
2017-05-19T11:47:11.091Z,69.60
2017-05-19T11:49:37.778Z,68.70
2017-05-19T11:52:05.225Z,71.40
2017-05-19T11:54:32.646Z,72.80
2017-05-19T11:56:59.322Z,73.60
2017-05-19T11:59:26.037Z,74.00
2017-05-19T12:01:52.730Z,71.50
2017-05-19T12:04:19.403Z,75.60
2017-05-19T12:06:46.139Z,76.00
2017-05-19T12:09:12.820Z,78.00
2017-05-19T12:11:39.478Z,77.90
2017-05-19T12:14:06.920Z,76.60
2017-05-19T12:16:33.592Z,78.20
2017-05-19T12:19:00.332Z,78.20
2017-05-19T12:21:27.019Z,78.20
2017-05-19T12:23:53.694Z,78.50
2017-05-19T12:26:21.107Z,78.20
2017-05-19T12:29:19.393Z,77.60
2017-05-19T12:31:46.121Z,77.60
2017-05-19T12:34:12.823Z,78.50
2017-05-19T12:36:39.520Z,80.10
2017-05-19T12:39:07.240Z,76.90
2017-05-19T12:41:33.944Z,77.60
2017-05-19T12:44:00.650Z,77.20
2017-05-19T12:46:27.334Z,78.20
2017-05-19T12:48:54.023Z,76.90
2017-05-19T12:51:20.730Z,77.60
2017-05-19T12:53:47.415Z,76.70
2017-05-19T12:56:14.122Z,77.30
2017-05-19T12:58:40.824Z,77.20
2017-05-19T13:01:07.520Z,74.70
2017-05-19T13:03:34.223Z,74.50
2017-05-19T13:06:00.907Z,75.00
2017-05-19T13:08:27.600Z,75.50
2017-05-19T13:10:54.320Z,76.50
2017-05-19T13:13:21.006Z,77.40
2017-05-19T13:15:47.691Z,73.60
2017-05-19T13:18:13.647Z,73.50
2017-05-19T13:20:40.339Z,77.00
2017-05-19T13:23:07.051Z,74.60
2017-05-19T13:25:33.735Z,75.90
2017-05-19T13:28:00.419Z,73.60
2017-05-19T13:30:27.126Z,72.50
2017-05-19T13:32:53.835Z,74.30
2017-05-19T13:35:20.552Z,75.40
2017-05-19T13:37:47.238Z,76.40
2017-05-19T13:40:13.931Z,78.30
2017-05-19T13:42:40.627Z,78.70
2017-05-19T13:45:07.307Z,79.60
2017-05-19T13:47:34.021Z,79.00
2017-05-19T13:50:00.706Z,79.10
2017-05-19T13:52:27.401Z,79.60
2017-05-19T13:54:54.550Z,78.10
2017-05-19T13:57:21.226Z,79.90
2017-05-19T13:59:47.944Z,82.50
2017-05-19T14:02:14.630Z,83.00
2017-05-19T14:04:41.331Z,83.80
2017-05-19T14:07:08.044Z,84.00
2017-05-19T14:09:34.739Z,86.20
2017-05-19T14:12:01.450Z,84.00
2017-05-19T14:14:28.133Z,84.50
2017-05-19T14:16:54.835Z,84.80
2017-05-19T14:19:21.530Z,84.90
2017-05-19T14:21:48.217Z,85.00
2017-05-19T14:24:15.092Z,85.50
2017-05-19T14:26:42.076Z,85.20
2017-05-19T14:29:08.779Z,84.70
2017-05-19T14:31:35.475Z,86.90
2017-05-19T14:34:02.159Z,88.00
2017-05-19T14:36:28.872Z,87.10
2017-05-19T14:38:55.555Z,86.30
2017-05-19T14:41:22.248Z,85.80
2017-05-19T14:43:49.175Z,85.40
2017-05-19T14:46:15.860Z,87.40
2017-05-19T14:48:42.579Z,88.40
2017-05-19T14:51:09.267Z,85.30
2017-05-19T14:53:35.965Z,87.50
2017-05-19T14:56:02.664Z,88.00
2017-05-19T14:58:29.343Z,86.80
2017-05-19T15:00:56.059Z,87.30
2017-05-19T15:03:22.743Z,89.00
2017-05-19T15:05:49.438Z,89.10
2017-05-19T15:08:16.382Z,87.60
2017-05-19T15:10:43.062Z,88.10
2017-05-19T15:13:10.071Z,87.40
2017-05-19T15:15:36.754Z,89.40
2017-05-19T15:18:03.451Z,90.90
2017-05-19T15:20:30.148Z,90.20
2017-05-19T15:22:56.834Z,90.30
2017-05-19T15:25:23.550Z,90.90
2017-05-19T15:27:50.239Z,90.30
2017-05-19T15:30:16.918Z,90.30
2017-05-19T15:32:43.624Z,90.90
2017-05-19T15:35:10.328Z,90.70
2017-05-19T15:37:37.028Z,91.20
2017-05-19T15:40:03.757Z,91.20
2017-05-19T15:42:30.494Z,91.50
2017-05-19T15:44:57.191Z,91.40
2017-05-19T15:47:24.286Z,91.70
2017-05-19T15:49:51.008Z,92.20
2017-05-19T15:52:17.717Z,92.30
2017-05-19T15:54:44.409Z,92.80
2017-05-19T15:57:11.111Z,92.40
2017-05-19T15:59:37.824Z,93.80
2017-05-19T16:02:04.523Z,92.40
2017-05-19T16:04:31.224Z,93.20
2017-05-19T16:06:57.906Z,92.80
2017-05-19T16:09:24.607Z,93.30
2017-05-19T16:11:51.316Z,93.40
2017-05-19T16:14:18.041Z,93.00
2017-05-19T16:16:44.740Z,93.70
2017-05-19T16:19:11.442Z,93.80
2017-05-19T16:21:38.135Z,93.70
2017-05-19T16:24:04.823Z,93.20
2017-05-19T16:26:31.544Z,93.20
2017-05-19T16:28:58.231Z,93.50
2017-05-19T16:31:24.940Z,93.50
2017-05-19T16:33:51.650Z,94.00
2017-05-19T16:36:18.351Z,93.70
2017-05-19T16:38:45.084Z,94.00
2017-05-19T16:41:11.781Z,94.60
2017-05-19T16:43:38.485Z,94.60
2017-05-19T16:46:05.199Z,94.30
2017-05-19T16:48:31.894Z,94.10
2017-05-19T16:50:58.598Z,93.70
2017-05-19T16:53:25.283Z,93.70
2017-05-19T16:55:51.963Z,94.00
2017-05-19T16:58:25.531Z,94.20
2017-05-19T17:00:52.227Z,93.50
2017-05-19T17:03:18.946Z,93.70
2017-05-19T17:05:45.647Z,94.20
2017-05-19T17:08:12.333Z,94.40
2017-05-19T17:10:39.050Z,94.40
2017-05-19T17:13:05.731Z,94.40
2017-05-19T17:15:32.415Z,94.20
2017-05-19T17:17:59.232Z,94.20
2017-05-19T17:20:25.915Z,94.10
2017-05-19T17:22:52.599Z,94.10
2017-05-19T17:25:19.303Z,94.10
2017-05-19T17:27:46.208Z,94.70
2017-05-19T17:30:12.914Z,94.50
2017-05-19T17:32:39.668Z,94.80
2017-05-19T17:35:06.355Z,94.80
2017-05-19T17:37:33.060Z,94.40
2017-05-19T17:39:59.759Z,94.80
2017-05-19T17:42:26.471Z,95.00
2017-05-19T17:44:53.164Z,94.70
2017-05-19T17:47:19.112Z,94.70
2017-05-19T17:49:45.820Z,95.40
2017-05-19T17:52:12.763Z,95.10
2017-05-19T17:54:39.484Z,94.90
2017-05-19T17:57:06.184Z,94.90
2017-05-19T17:59:32.891Z,94.90
2017-05-19T18:01:59.585Z,95.20
2017-05-19T18:04:26.288Z,95.10
2017-05-19T18:06:53.012Z,95.00
2017-05-19T18:09:19.706Z,94.80
2017-05-19T18:11:46.414Z,95.20
2017-05-19T18:14:13.147Z,95.70
2017-05-19T18:16:39.847Z,95.70
2017-05-19T18:19:06.579Z,95.10
2017-05-19T18:21:33.275Z,94.90
2017-05-19T18:23:59.967Z,95.20
2017-05-19T18:26:26.679Z,95.10
2017-05-19T18:28:53.375Z,95.60
2017-05-19T18:31:20.111Z,94.30
2017-05-19T18:33:46.813Z,94.40
2017-05-19T18:36:13.508Z,94.80
2017-05-19T18:38:40.247Z,94.70
2017-05-19T18:41:06.940Z,94.60
2017-05-19T18:43:33.655Z,94.80
2017-05-19T18:46:00.355Z,94.20
2017-05-19T18:48:27.048Z,94.20
2017-05-19T18:50:53.764Z,94.40
2017-05-19T18:53:20.451Z,94.70
2017-05-19T18:55:47.165Z,94.40
2017-05-19T18:58:13.866Z,94.40
2017-05-19T19:00:40.567Z,94.60
2017-05-19T19:03:07.265Z,95.10
2017-05-19T19:05:33.972Z,94.60
2017-05-19T19:08:00.687Z,94.10
2017-05-19T19:10:27.382Z,94.60
2017-05-19T19:12:54.089Z,94.00
2017-05-19T19:15:27.830Z,94.10
2017-05-19T19:17:54.658Z,94.40
2017-05-19T19:20:21.383Z,94.30
2017-05-19T19:22:48.071Z,94.00
2017-05-19T19:25:14.766Z,94.30
2017-05-19T19:27:41.462Z,95.20
2017-05-19T19:30:08.143Z,94.30
2017-05-19T19:32:34.843Z,94.60
2017-05-19T19:35:01.530Z,94.60
2017-05-19T19:37:28.227Z,94.90
2017-05-19T19:39:54.936Z,94.90
2017-05-19T19:42:21.707Z,94.30
2017-05-19T19:44:48.448Z,94.30
2017-05-19T19:47:15.135Z,94.40
2017-05-19T19:49:41.828Z,94.80
2017-05-19T19:52:08.526Z,94.40
2017-05-19T19:54:35.225Z,94.70
2017-05-19T19:57:01.939Z,94.50
2017-05-19T19:59:28.640Z,94.50
2017-05-19T20:01:55.323Z,94.20
2017-05-19T20:04:22.024Z,94.80
2017-05-19T20:06:48.746Z,95.00
2017-05-19T20:09:15.484Z,94.80
2017-05-19T20:11:42.180Z,94.20
2017-05-19T20:14:08.884Z,94.20
2017-05-19T20:16:35.589Z,94.10
2017-05-19T20:19:02.279Z,94.20
2017-05-19T20:21:29.016Z,94.80
2017-05-19T20:23:55.703Z,93.70
2017-05-19T20:26:22.395Z,94.30
2017-05-19T20:28:49.180Z,95.00
2017-05-19T20:31:15.879Z,94.40
2017-05-19T20:33:42.599Z,94.70
2017-05-19T20:36:09.304Z,94.30
2017-05-19T20:38:35.996Z,93.70
2017-05-19T20:41:02.688Z,93.60
2017-05-19T20:43:29.379Z,94.00
2017-05-19T20:45:56.107Z,93.70
2017-05-19T20:48:22.796Z,94.50
2017-05-19T20:50:49.495Z,94.20
2017-05-19T20:53:16.189Z,94.70
2017-05-19T20:55:42.891Z,95.00
2017-05-19T20:58:09.616Z,94.50
2017-05-19T21:00:36.309Z,94.40
2017-05-19T21:03:02.999Z,94.10
2017-05-19T21:05:29.743Z,94.10
2017-05-19T21:07:56.502Z,94.20
2017-05-19T21:10:23.196Z,94.00
2017-05-19T21:12:49.902Z,94.10
2017-05-19T21:15:16.603Z,94.60
2017-05-19T21:17:43.287Z,94.70
2017-05-19T21:20:10.012Z,94.50
2017-05-19T21:22:36.695Z,94.30
2017-05-19T21:25:03.391Z,94.40
2017-05-19T21:27:30.107Z,94.60
2017-05-19T21:29:56.845Z,94.60
2017-05-19T21:32:23.559Z,94.90
2017-05-19T21:34:50.264Z,94.30
2017-05-19T21:37:16.963Z,94.20
2017-05-19T21:39:43.672Z,94.10
2017-05-19T21:42:10.375Z,94.30
2017-05-19T21:44:37.101Z,94.80
2017-05-19T21:47:03.790Z,95.10
2017-05-19T21:49:30.492Z,94.50
2017-05-19T21:51:57.197Z,94.70
2017-05-19T21:54:23.897Z,95.00
2017-05-19T21:56:50.606Z,95.30
2017-05-19T21:59:17.300Z,95.30
2017-05-19T22:01:44.037Z,95.50
2017-05-19T22:04:10.735Z,95.80
2017-05-19T22:06:37.431Z,95.90
2017-05-19T22:09:04.156Z,95.80
2017-05-19T22:11:30.862Z,95.70
2017-05-19T22:13:57.558Z,95.80
2017-05-19T22:16:24.255Z,95.60
2017-05-19T22:18:50.952Z,95.50
2017-05-19T22:21:17.675Z,95.30
2017-05-19T22:23:44.374Z,95.20
2017-05-19T22:26:11.179Z,95.30
2017-05-19T22:28:37.880Z,95.30
2017-05-19T22:31:04.584Z,95.30
2017-05-19T22:33:31.320Z,95.30
2017-05-19T22:35:58.006Z,95.70
2017-05-19T22:38:24.701Z,94.90
2017-05-19T22:40:51.407Z,94.90
2017-05-19T22:43:18.096Z,94.40
2017-05-19T22:45:44.818Z,94.60
2017-05-19T22:48:11.500Z,94.60
2017-05-19T22:50:38.199Z,94.40
2017-05-19T22:53:04.904Z,94.80
2017-05-19T22:55:31.596Z,95.20
2017-05-19T22:57:58.316Z,95.30
2017-05-19T23:00:25.003Z,95.10
2017-05-19T23:02:51.707Z,94.90
2017-05-19T23:05:18.415Z,95.10
2017-05-19T23:07:45.207Z,95.20
2017-05-19T23:10:11.935Z,95.10
2017-05-19T23:12:38.628Z,95.20
2017-05-19T23:15:05.330Z,95.40
2017-05-19T23:17:32.030Z,95.30
2017-05-19T23:19:58.724Z,95.70
2017-05-19T23:22:25.447Z,95.20
2017-05-19T23:24:52.137Z,95.40
2017-05-19T23:27:18.829Z,95.50
2017-05-19T23:29:45.540Z,95.80
2017-05-19T23:32:12.234Z,95.70
2017-05-19T23:34:38.946Z,95.60
2017-05-19T23:37:05.639Z,95.50
2017-05-19T23:39:32.351Z,95.80
2017-05-19T23:41:59.061Z,95.40
2017-05-19T23:44:25.757Z,95.40
2017-05-19T23:46:52.479Z,95.50
2017-05-19T23:49:19.204Z,95.80
2017-05-19T23:51:45.897Z,95.80
2017-05-19T23:54:12.597Z,96.00
2017-05-19T23:56:39.299Z,95.90
2017-05-19T23:59:06.015Z,95.80
